• Join FlightAware (Why Join?)
  • Login
  • US Flag 
07:35PM EDT


 

Airport Tracker/Info


-or-


 

Live Flight TrackerFlight Track Log ✈ N68JV ✈ 16-Sep-2013 ✈ KASL - KTPA

Flight Track Log - Related Links

Times and Time Zones

All times are in EDT time to prevent confusion due to time zone crossing. See the N68JV flight status page for this flight to view local times or setup timezone preferences in your user account.

Time Position Orientation Groundspeed Altitude Reporting Facility
EDT Latitude Longitude Course Direction KTS MPH feet Rate Location/Type
09:12AM 32.4358 -94.2136 111° Southeast 258 297 5,400  Level Fort Worth Center
09:13AM 32.4133 -94.1553 115° Southeast 283 326 7,600 3,060 Climbing Fort Worth Center
09:13AM 32.4083 -94.1211 100° East 273 314 8,300 2,520 Climbing Fort Worth Center
09:14AM 32.3919 -94.0553 106° East 281 323 10,700 2,640 Climbing Fort Worth Center
09:15AM 32.3536 -93.9533 114° Southeast 296 341 13,600 2,400 Climbing Fort Worth Center
09:16AM 32.3142 -93.8761 121° Southeast 308 354 15,600 1,860 Climbing Fort Worth Center
09:17AM 32.2672 -93.7725 118° Southeast 320 368 17,400 1,680 Climbing Fort Worth Center
09:18AM 32.2033 -93.3434 111° Southeast  Level Estimated
09:18AM 32.2492 -93.6528 100° East 344 396 19,100  Level Fort Worth Center
09:19AM 32.2311 -93.5406 101° East 350 403 20,600 1,560 Climbing Fort Worth Center
09:21AM 32.1922 -93.3286 102° East 374 430 23,500 1,500 Climbing Houston Center
09:22AM 32.1694 -93.2042 102° East 381 438 25,000 1,320 Climbing Houston Center
09:23AM 32.1464 -93.0744 102° East 394 453 26,300 1,260 Climbing Houston Center
09:24AM 32.1228 -92.9406 102° East 408 470 27,600 1,080 Climbing Houston Center
09:25AM 32.0981 -92.8036 102° East 418 481 28,600 960 Climbing Houston Center
09:26AM 32.0722 -92.6589 102° East 427 491 29,600 1,080 Climbing Houston Center
09:27AM 32.0461 -92.5189 102° East 435 501 30,900 1,260 Climbing Houston Center
09:28AM 32.0208 -92.3789 102° East 436 502 32,300 1,260 Climbing Houston Center
09:29AM 31.9950 -92.2403 102° East 434 499 33,500 1,200 Climbing Houston Center
09:30AM 31.9697 -92.1039 102° East 428 493 34,800 1,020 Climbing Houston Center
09:31AM 31.9392 -91.9403 102° East 434 499 35,700 960 Climbing Houston Center
09:32AM 31.9136 -91.8042 102° East 428 493 36,800 600 Climbing Houston Center
09:33AM 31.8869 -91.6681 103° East 426 490 37,000 60 Climbing Houston Center
09:34AM 31.8597 -91.5250 103° East 443 510 37,000  Level Houston Center
09:35AM 31.8317 -91.3767 103° East 459 528 37,000  Level Houston Center
09:36AM 31.8025 -91.2269 103° East 469 540 37,000 -60 Level Houston Center
09:37AM 31.7692 -91.0608 103° East 473 544 36,900  Descending Houston Center
09:38AM 31.7394 -90.9125 103° East 468 539 37,000  Climbing Houston Center
09:39AM 31.7097 -90.7631 103° East 469 540 37,000  Level Houston Center
09:40AM 31.6797 -90.6136 103° East 471 542 37,000  Level Houston Center
09:41AM 31.6506 -90.4644 103° East 469 540 37,000  Level Houston Center
09:42AM 31.6147 -90.2878 103° East 465 535 37,000  Level Houston Center
09:44AM 31.5842 -90.1414 104° East 463 533 37,000  Level Houston Center
09:45AM 31.5544 -89.9928 103° East 466 536 37,000 -60 Level Houston Center
09:46AM 31.5233 -89.8450 104° East 467 537 36,900  Descending Houston Center
09:47AM 31.4933 -89.6975 103° East 465 535 37,000  Climbing Houston Center
09:48AM 31.4631 -89.5503 104° East 465 535 37,000  Level Houston Center
09:49AM 31.4267 -89.3772 104° East 464 534 37,000  Level Houston Center
09:50AM 31.3956 -89.2336 104° East 459 528 37,000  Level Houston Center
09:51AM 31.3661 -89.0911 104° East 454 522 37,000  Level Houston Center
09:52AM 31.3356 -88.9481 104° East 452 520 37,000  Level Houston Center
09:53AM 31.3042 -88.8047 104° East 455 524 37,000  Level Houston Center
09:54AM 31.2739 -88.6628 104° East 451 519 37,000  Level Houston Center
09:55AM 31.2428 -88.5200 104° East 453 521 37,000  Level Houston Center
09:56AM 31.2117 -88.3736 104° East 450 518 37,000  Level Houston Center
09:57AM 31.1728 -88.2014 105° East 465 535 37,000  Level Houston Center
09:58AM 31.1411 -88.0594 105° East 460 529 37,000  Level Houston Center
09:59AM 31.1106 -87.9178 104° East 449 517 37,000  Level Houston Center
10:00AM 31.0778 -87.7756 105° East 452 520 37,000  Level Houston Center
10:01AM 31.0456 -87.6300 104° East 450 518 37,000  Level Houston Center
10:02AM 31.0133 -87.4883 105° East 452 520 37,000  Level Houston Center
10:03AM 30.9814 -87.3464 105° East 453 521 37,000  Level Houston Center
10:04AM 30.9489 -87.2044 105° East 453 521 37,000  Level Houston Center
10:05AM 30.9128 -87.0525 105° East 453 521 37,000  Level Houston Center
10:06AM 30.8803 -86.9117 105° East 451 519 37,000  Level Houston Center
10:07AM 30.8356 -86.7458 107° East 448 516 37,000  Level Houston Center
10:08AM 30.7881 -86.6117 112° Southeast 450 518 37,000  Level Houston Center
10:09AM 30.7428 -86.4778 111° Southeast 448 516 37,000  Level Houston Center
10:11AM 30.6842 -86.3106 112° Southeast 440 506 37,000  Level Jacksonville Center
10:12AM 30.6375 -86.1761 112° Southeast 440 506 37,000  Level Jacksonville Center
10:13AM 30.5931 -86.0417 111° Southeast 440 506 37,000  Level Jacksonville Center
10:14AM 30.5461 -85.9100 112° Southeast 440 506 37,000  Level Jacksonville Center
10:15AM 30.4992 -85.7736 112° Southeast 440 506 37,000  Level Jacksonville Center
10:16AM 30.4519 -85.6444 113° Southeast 440 506 37,000  Level Jacksonville Center
10:17AM 30.4067 -85.5083 111° Southeast 440 506 37,000  Level Jacksonville Center
10:18AM 30.3592 -85.3769 113° Southeast 440 506 37,000  Level Jacksonville Center
10:19AM 30.3117 -85.2458 113° Southeast 440 506 37,000  Level Jacksonville Center
10:20AM 30.2639 -85.1075 112° Southeast 440 506 37,000  Level Jacksonville Center
10:21AM 30.2161 -84.9767 113° Southeast 440 506 37,000  Level Jacksonville Center
10:22AM 30.1681 -84.8411 112° Southeast 440 506 37,000  Level Jacksonville Center
10:23AM 30.1200 -84.7128 113° Southeast 440 506 37,000  Level Jacksonville Center
10:24AM 30.0717 -84.5775 112° Southeast 440 506 37,000  Level Jacksonville Center
10:25AM 30.0253 -84.4472 112° Southeast 440 506 37,000 -60 Level Jacksonville Center
10:26AM 29.9747 -84.3144 114° Southeast 440 506 36,900 -600 Descending Jacksonville Center
10:27AM 29.9258 -84.1867 114° Southeast 440 506 35,900 -1,500 Descending Jacksonville Center
10:28AM 29.8811 -84.0567 112° Southeast 440 506 33,900 -2,160 Descending Jacksonville Center
10:29AM 29.8300 -83.9364 116° Southeast 435 501 31,600 -1,500 Descending Jacksonville Center
10:30AM 29.7369 -83.8422 139° Southeast 430 495 31,000 -300 Descending Jacksonville Center
10:31AM 29.6225 -83.7694 151° Southeast 442 509 31,000  Level Jacksonville Center
10:32AM 29.5125 -83.6969 150° Southeast 454 522 31,000 -120 Level Jacksonville Center
10:33AM 29.3981 -83.6244 151° Southeast 459 528 30,800 -1,200 Descending Jacksonville Center
10:34AM 29.2878 -83.5544 151° Southeast 465 535 28,600 -2,100 Descending Jacksonville Center
10:35AM 29.1775 -83.4825 150° Southeast 455 524 26,700 -1,740 Descending Jacksonville Center
10:36AM 29.0672 -83.4128 151° Southeast 455 524 25,200 -1,740 Descending Jacksonville Center
10:37AM 28.9464 -83.3339 150° Southeast 455 524 23,300 -2,100 Descending Jacksonville Center
10:38AM 28.8422 -83.2694 152° Southeast 445 512 21,100 -2,220 Descending Jacksonville Center
10:39AM 28.7381 -83.2028 151° Southeast 434 499 18,900 -2,040 Descending Jacksonville Center
10:40AM 28.6381 -83.1386 151° Southeast 422 486 17,100 -1,920 Descending Jacksonville Center
10:40AM 28.5667 -83.1000 155° Southeast 403 464 15,800 -1,980 Descending Tampa TRACON
10:41AM 28.4667 -83.0333 150° Southeast 387 445 13,700 -2,040 Descending Tampa TRACON
10:42AM 28.3833 -82.9833 152° Southeast 376 433 11,600 -1,380 Descending Tampa TRACON
10:43AM 28.3000 -82.9167 145° Southeast 355 409 11,000 -360 Descending Tampa TRACON
10:44AM 28.2167 -82.8500 145° Southeast 372 428 11,000 -360 Level Tampa TRACON
10:45AM 28.1500 -82.7667 132° Southeast 328 377 10,300 -1,320 Descending Tampa TRACON
10:46AM 28.0833 -82.7000 139° Southeast 294 338 8,300 -2,280 Descending Tampa TRACON
10:47AM 28.0167 -82.6333 139° Southeast 273 314 5,600 -1,680 Descending Tampa TRACON
10:48AM 27.9667 -82.6333 180° South 256 295 5,000 -780 Descending Tampa TRACON
10:49AM 27.8833 -82.6333 180° South 270 311 4,100 -1,020 Descending Tampa TRACON
10:50AM 27.8167 -82.6167 168° South 217 250 3,000 -900 Descending Tampa TRACON
10:51AM 27.8500 -82.5500 61° Northeast 205 236 2,500 -660 Descending Tampa TRACON
10:52AM 27.8833 -82.5333 24° Northeast 181 208 1,700 -900 Descending Tampa TRACON
10:53AM 27.9333 -82.5333 360° North 134 154 700 -960 Descending Tampa TRACON